Time;durP1;ratioP1;P1;durP2;ratioP2;P2;SDS_P1;SDS_P2;PMS_P1;PMS_P2;Temp;Humidity;BMP_temperature;BMP_pressure;BME280_temperature;BME280_humidity;BME280_pressure;Samples;Min_cycle;Max_cycle;Signal;HPM_P1;HPM_P2
2021/12/23 00:01:59;;;;;;;13.07;9.73;;;2.50;96.70;;;;;;5037209;28;20198;-74
2021/12/23 00:04:27;;;;;;;14.33;9.60;;;2.40;97.10;;;;;;5055250;28;20208;-73
2021/12/23 00:06:55;;;;;;;14.20;10.50;;;2.50;97.00;;;;;;5017816;28;20233;-74
2021/12/23 00:09:28;;;;;;;15.97;11.40;;;2.40;96.90;;;;;;5017447;28;20199;-74
2021/12/23 00:11:56;;;;;;;12.63;10.07;;;2.40;98.20;;;;;;5033681;28;20210;-74
2021/12/23 00:14:23;;;;;;;13.67;10.63;;;2.50;98.90;;;;;;5025020;28;20224;-73
2021/12/23 00:17:06;;;;;;;13.33;11.03;;;2.40;97.30;;;;;;5055141;28;20587;-74
2021/12/23 00:19:47;;;;;;;14.10;11.23;;;2.50;96.20;;;;;;5056075;28;20191;-74
2021/12/23 00:25:00;;;;;;;14.17;10.50;;;2.40;95.70;;;;;;5023942;28;20212;-74
2021/12/23 00:27:28;;;;;;;15.03;11.17;;;2.20;96.40;;;;;;5036938;28;20208;-73
2021/12/23 00:29:55;;;;;;;14.33;11.50;;;2.30;96.40;;;;;;5040271;28;20204;-74
2021/12/23 00:32:22;;;;;;;13.13;10.47;;;2.30;95.90;;;;;;5057650;28;20187;-73
2021/12/23 00:34:49;;;;;;;14.33;10.43;;;2.40;96.10;;;;;;5037167;28;20235;-74
2021/12/23 00:37:19;;;;;;;14.50;10.50;;;2.60;96.40;;;;;;5048950;28;20252;-74
2021/12/23 00:39:46;;;;;;;14.17;11.17;;;2.60;95.80;;;;;;5064667;28;20202;-74
2021/12/23 00:42:13;;;;;;;15.13;11.27;;;2.70;95.60;;;;;;5055198;28;20183;-73
2021/12/23 00:44:45;;;;;;;16.13;11.67;;;2.60;95.40;;;;;;5060032;28;20193;-74
2021/12/23 00:47:13;;;;;;;15.57;11.33;;;2.60;95.50;;;;;;5036515;28;20202;-74
2021/12/23 00:49:40;;;;;;;14.73;11.57;;;2.70;95.50;;;;;;5057774;28;20202;-73
2021/12/23 00:52:08;;;;;;;12.10;10.40;;;2.70;95.80;;;;;;5036030;28;20197;-74
2021/12/23 00:54:37;;;;;;;16.67;12.20;;;2.60;96.40;;;;;;5055238;28;20210;-73
2021/12/23 00:57:05;;;;;;;14.67;11.07;;;2.40;96.20;;;;;;5037058;28;20534;-70
2021/12/23 00:59:32;;;;;;;16.57;11.77;;;2.20;96.30;;;;;;5036792;28;20210;-73
2021/12/23 01:02:10;;;;;;;15.77;11.13;;;2.30;96.60;;;;;;5056632;28;20203;-73
2021/12/23 01:04:38;;;;;;;14.53;12.13;;;2.30;96.80;;;;;;5062296;28;20181;-74
2021/12/23 01:07:05;;;;;;;14.60;10.90;;;2.50;96.70;;;;;;5055873;28;20674;-74
2021/12/23 01:09:33;;;;;;;14.17;11.20;;;2.40;96.20;;;;;;5056026;28;20205;-73
2021/12/23 01:12:02;;;;;;;15.27;11.33;;;2.50;96.30;;;;;;5036398;28;20199;-74
2021/12/23 01:14:40;;;;;;;14.23;11.20;;;2.40;96.50;;;;;;5039310;28;20202;-73
2021/12/23 01:17:31;;;;;;;15.70;12.03;;;2.40;96.00;;;;;;5034934;28;20198;-74
2021/12/23 01:20:01;;;;;;;15.63;11.37;;;2.40;96.10;;;;;;5048087;28;20197;-74
2021/12/23 01:22:29;;;;;;;17.50;12.23;;;2.50;96.20;;;;;;5035971;28;20225;-74
2021/12/23 01:24:56;;;;;;;16.43;12.13;;;2.70;96.10;;;;;;5054187;28;20222;-73
2021/12/23 01:27:25;;;;;;;15.83;11.57;;;2.80;95.90;;;;;;5027978;28;20206;-74
2021/12/23 01:30:17;;;;;;;17.87;13.17;;;2.80;96.00;;;;;;5030305;28;20203;-74
2021/12/23 01:32:45;;;;;;;17.80;12.17;;;2.50;96.40;;;;;;5049223;28;20653;-74
2021/12/23 01:35:12;;;;;;;17.20;12.23;;;2.30;96.60;;;;;;5035662;28;20229;-73
2021/12/23 01:37:40;;;;;;;16.67;12.07;;;2.30;97.30;;;;;;5053955;28;20191;-73
2021/12/23 01:40:09;;;;;;;19.80;12.57;;;2.10;97.50;;;;;;5051457;28;20183;-72
2021/12/23 01:42:38;;;;;;;17.70;12.93;;;2.20;97.90;;;;;;5020887;28;20190;-73
2021/12/23 01:45:10;;;;;;;16.47;12.17;;;2.20;97.40;;;;;;5061033;28;20677;-74
2021/12/23 01:47:37;;;;;;;19.67;13.23;;;2.30;97.10;;;;;;5054975;28;20666;-74
2021/12/23 01:50:06;;;;;;;18.27;12.57;;;2.40;96.90;;;;;;5035019;28;20195;-73
2021/12/23 01:52:34;;;;;;;17.97;12.77;;;2.40;96.90;;;;;;5020074;28;20198;-72
2021/12/23 01:55:02;;;;;;;16.80;12.03;;;2.30;97.00;;;;;;5053267;28;20224;-72
2021/12/23 01:57:32;;;;;;;16.83;12.47;;;2.10;97.20;;;;;;5043250;28;20684;-74
2021/12/23 02:00:04;;;;;;;18.03;13.40;;;2.10;97.30;;;;;;5053420;28;20187;-74
2021/12/23 02:02:40;;;;;;;18.40;12.73;;;2.30;97.10;;;;;;5063213;28;20202;-73
2021/12/23 02:05:09;;;;;;;16.20;12.27;;;2.40;97.30;;;;;;5053006;28;20223;-74
2021/12/23 02:07:38;;;;;;;17.17;12.83;;;2.50;97.10;;;;;;5045022;28;20201;-74
2021/12/23 02:10:07;;;;;;;17.20;13.10;;;2.50;96.80;;;;;;5033286;28;20197;-74
2021/12/23 02:12:36;;;;;;;17.63;13.30;;;2.70;97.00;;;;;;5030180;28;20220;-74
2021/12/23 02:15:05;;;;;;;16.60;13.10;;;2.50;96.50;;;;;;5047360;28;20220;-74
2021/12/23 02:17:36;;;;;;;17.43;12.40;;;2.50;96.60;;;;;;5031961;28;20206;-74
2021/12/23 02:20:07;;;;;;;18.37;12.30;;;2.40;96.80;;;;;;5069628;28;20554;-74
2021/12/23 02:22:34;;;;;;;16.50;12.40;;;2.40;96.80;;;;;;5045804;28;20192;-72
2021/12/23 02:25:02;;;;;;;15.90;12.40;;;2.30;97.00;;;;;;5039939;28;20600;-74
2021/12/23 02:27:33;;;;;;;19.70;12.60;;;2.30;97.30;;;;;;5029185;28;20566;-72
2021/12/23 02:30:01;;;;;;;18.07;12.87;;;2.50;97.20;;;;;;5036559;28;20227;-74
2021/12/23 02:32:28;;;;;;;15.60;13.07;;;2.60;97.10;;;;;;5032723;28;20201;-74
2021/12/23 02:34:56;;;;;;;16.47;13.27;;;2.60;97.00;;;;;;5053094;28;20210;-74
2021/12/23 02:37:38;;;;;;;16.37;13.23;;;2.60;97.00;;;;;;5039556;28;20214;-73
2021/12/23 02:40:36;;;;;;;15.93;12.63;;;2.60;96.90;;;;;;5052062;28;20195;-74
2021/12/23 02:43:11;;;;;;;16.97;12.67;;;2.80;96.80;;;;;;5029815;28;20210;-73
2021/12/23 02:45:38;;;;;;;17.90;13.17;;;2.70;96.90;;;;;;5052493;28;20209;-72
2021/12/23 02:48:12;;;;;;;16.87;12.53;;;2.90;97.00;;;;;;5055721;28;20539;-72
2021/12/23 02:51:07;;;;;;;18.37;13.53;;;2.80;96.70;;;;;;5051467;28;20182;-72
2021/12/23 02:53:36;;;;;;;17.30;12.63;;;2.70;97.20;;;;;;5066617;28;20195;-72
2021/12/23 02:56:06;;;;;;;17.47;13.27;;;2.70;97.80;;;;;;5038577;28;20591;-73
2021/12/23 02:58:34;;;;;;;20.67;14.50;;;2.60;98.50;;;;;;5033925;28;20228;-72
2021/12/23 03:01:05;;;;;;;18.37;13.97;;;2.50;99.10;;;;;;5035391;28;20212;-72
2021/12/23 03:03:35;;;;;;;19.73;13.57;;;2.60;98.00;;;;;;5038081;28;20195;-72
2021/12/23 03:06:04;;;;;;;17.97;13.57;;;2.60;97.70;;;;;;5052400;28;20225;-72
2021/12/23 03:08:34;;;;;;;17.43;13.50;;;2.70;98.30;;;;;;5062320;28;20200;-72
2021/12/23 03:11:04;;;;;;;18.57;13.63;;;2.80;98.90;;;;;;5052310;28;20205;-72
2021/12/23 03:13:32;;;;;;;19.23;12.83;;;2.90;98.10;;;;;;5054601;28;20193;-72
2021/12/23 03:15:59;;;;;;;16.80;12.73;;;3.00;97.70;;;;;;5035834;28;20226;-71
2021/12/23 03:18:28;;;;;;;15.63;12.53;;;2.90;97.40;;;;;;5051883;28;20186;-72
2021/12/23 03:20:56;;;;;;;17.00;12.97;;;2.80;97.60;;;;;;5034488;28;20202;-72
2021/12/23 03:23:24;;;;;;;16.97;12.90;;;2.80;97.40;;;;;;5035833;28;20213;-72
2021/12/23 03:25:51;;;;;;;20.07;14.23;;;2.80;97.60;;;;;;5052257;28;20221;-72
2021/12/23 03:28:20;;;;;;;17.10;13.20;;;2.80;97.50;;;;;;5033768;28;20197;-72
2021/12/23 03:30:48;;;;;;;16.77;12.83;;;2.60;97.80;;;;;;5057589;28;20640;-72
2021/12/23 03:33:15;;;;;;;17.73;13.63;;;2.50;98.20;;;;;;5033969;28;20206;-72
2021/12/23 03:35:43;;;;;;;16.87;13.17;;;2.60;98.40;;;;;;5034143;28;20240;-72
2021/12/23 03:38:10;;;;;;;18.30;13.43;;;2.70;98.10;;;;;;5067006;28;20202;-71
2021/12/23 03:40:39;;;;;;;18.17;13.70;;;2.50;98.50;;;;;;5054146;28;20220;-72
2021/12/23 03:43:06;;;;;;;17.63;13.63;;;2.60;98.80;;;;;;5045668;28;20197;-72
2021/12/23 03:45:35;;;;;;;19.03;14.10;;;2.70;98.90;;;;;;5032993;28;20224;-72
2021/12/23 03:48:02;;;;;;;19.43;14.20;;;2.50;98.80;;;;;;5021059;28;20229;-72
2021/12/23 03:50:30;;;;;;;19.33;14.23;;;2.60;99.00;;;;;;5059301;28;20190;-72
2021/12/23 03:52:58;;;;;;;20.27;13.80;;;2.60;99.10;;;;;;5037328;28;20202;-71
2021/12/23 03:55:25;;;;;;;19.00;13.90;;;2.40;99.40;;;;;;5054154;28;20236;-71
2021/12/23 03:57:52;;;;;;;18.37;13.67;;;2.30;99.90;;;;;;5051422;28;20221;-72
2021/12/23 04:00:26;;;;;;;19.00;14.23;;;2.40;99.90;;;;;;5043218;28;20211;-71
2021/12/23 04:02:55;;;;;;;19.30;14.20;;;2.50;99.90;;;;;;5025317;28;20221;-71
2021/12/23 04:05:23;;;;;;;20.23;13.90;;;2.50;99.90;;;;;;5034456;28;20230;-72
2021/12/23 04:07:51;;;;;;;18.33;13.43;;;2.40;99.90;;;;;;5043958;28;20205;-73
2021/12/23 04:10:21;;;;;;;18.00;13.57;;;2.50;99.90;;;;;;5033532;28;20215;-72
2021/12/23 04:13:11;;;;;;;18.80;13.33;;;2.30;99.90;;;;;;5025740;28;20194;-72
2021/12/23 04:15:38;;;;;;;19.07;14.10;;;2.30;99.90;;;;;;5033576;28;20229;-72
2021/12/23 04:18:07;;;;;;;22.13;14.00;;;2.30;99.90;;;;;;5051902;28;20215;-71
2021/12/23 04:20:45;;;;;;;19.80;14.50;;;2.20;99.90;;;;;;5034958;28;20207;-72
2021/12/23 04:23:13;;;;;;;22.37;14.50;;;2.00;99.90;;;;;;5039028;28;20643;-72
2021/12/23 04:25:40;;;;;;;20.73;14.73;;;2.00;99.90;;;;;;5032834;28;20703;-72
2021/12/23 04:28:07;;;;;;;19.67;14.27;;;2.00;99.90;;;;;;5053788;28;20190;-71
2021/12/23 04:30:35;;;;;;;19.47;14.83;;;2.20;99.90;;;;;;5032957;28;20202;-72
2021/12/23 04:33:02;;;;;;;19.67;13.60;;;2.30;99.90;;;;;;5051291;28;20193;-71
2021/12/23 04:35:31;;;;;;;20.73;14.57;;;2.20;99.90;;;;;;5033704;28;20606;-72
2021/12/23 04:37:58;;;;;;;19.27;13.90;;;2.30;99.90;;;;;;5061764;28;20209;-71
2021/12/23 04:40:26;;;;;;;18.37;14.17;;;2.20;99.90;;;;;;5047245;28;20201;-72
2021/12/23 04:42:53;;;;;;;20.60;14.43;;;2.40;99.90;;;;;;5055277;28;20195;-72
2021/12/23 04:45:21;;;;;;;20.43;14.33;;;2.20;99.90;;;;;;5036727;28;20222;-72
2021/12/23 04:47:48;;;;;;;21.93;15.17;;;2.10;99.90;;;;;;5043104;28;20660;-72
2021/12/23 04:50:17;;;;;;;21.03;15.30;;;2.30;99.90;;;;;;5057871;28;20331;-72
2021/12/23 04:52:46;;;;;;;21.23;15.10;;;2.30;99.90;;;;;;5055106;28;20563;-72
2021/12/23 04:55:15;;;;;;;21.93;15.83;;;2.40;99.90;;;;;;5054788;28;20213;-72
2021/12/23 04:57:43;;;;;;;21.40;15.53;;;2.30;99.90;;;;;;5056401;28;20201;-72
2021/12/23 05:00:14;;;;;;;22.00;16.30;;;2.30;99.90;;;;;;5045014;28;20207;-73
2021/12/23 05:02:43;;;;;;;20.77;16.30;;;2.20;99.90;;;;;;5034646;28;20202;-72
2021/12/23 05:05:11;;;;;;;24.53;15.20;;;2.30;99.90;;;;;;5073941;28;20225;-71
2021/12/23 05:07:39;;;;;;;22.90;15.43;;;2.20;99.90;;;;;;5043443;28;20190;-74
2021/12/23 05:10:10;;;;;;;20.00;14.67;;;2.10;99.90;;;;;;5040030;28;20195;-74
2021/12/23 05:12:43;;;;;;;22.57;16.20;;;2.00;99.90;;;;;;5067648;28;20202;-74
2021/12/23 05:15:11;;;;;;;23.47;16.10;;;1.90;99.90;;;;;;5049306;28;20215;-74
2021/12/23 05:17:38;;;;;;;21.47;15.77;;;1.90;99.90;;;;;;5040544;28;20206;-74
2021/12/23 05:20:07;;;;;;;19.87;14.67;;;1.80;99.90;;;;;;5035990;28;20205;-74
2021/12/23 05:22:35;;;;;;;22.73;16.57;;;1.90;99.90;;;;;;5066448;28;20213;-74
2021/12/23 05:25:05;;;;;;;23.43;16.40;;;1.80;99.90;;;;;;5040849;28;20218;-74
2021/12/23 05:27:35;;;;;;;20.53;15.80;;;2.00;99.90;;;;;;5042247;28;20205;-74
2021/12/23 05:30:03;;;;;;;22.13;14.97;;;2.00;99.90;;;;;;5026742;28;20200;-75
2021/12/23 05:32:30;;;;;;;25.37;16.10;;;2.00;99.90;;;;;;5051830;28;20198;-75
2021/12/23 05:34:58;;;;;;;21.37;15.27;;;2.00;99.90;;;;;;5035901;28;20206;-74
2021/12/23 05:37:25;;;;;;;22.43;15.63;;;1.90;99.90;;;;;;5055805;28;20208;-68
2021/12/23 05:39:54;;;;;;;22.03;15.73;;;1.90;99.90;;;;;;5073702;28;20193;-75
2021/12/23 05:42:22;;;;;;;22.57;15.30;;;1.70;99.90;;;;;;5062626;28;20194;-73
2021/12/23 05:44:50;;;;;;;23.13;16.20;;;1.70;99.90;;;;;;5034538;28;20560;-74
2021/12/23 05:47:18;;;;;;;21.07;15.00;;;1.80;99.90;;;;;;5035102;28;20205;-75
2021/12/23 05:49:45;;;;;;;24.10;16.17;;;1.80;99.90;;;;;;5053820;28;20197;-75
2021/12/23 05:52:13;;;;;;;26.13;16.43;;;1.90;99.90;;;;;;5045195;28;20191;-74
2021/12/23 05:54:40;;;;;;;21.93;16.10;;;1.90;99.90;;;;;;5053428;28;20194;-74
2021/12/23 05:57:08;;;;;;;22.77;16.27;;;1.90;99.90;;;;;;5035134;28;20215;-74
2021/12/23 05:59:36;;;;;;;23.10;15.97;;;1.90;99.90;;;;;;5035192;28;20199;-74
2021/12/23 06:02:06;;;;;;;22.30;15.43;;;1.80;99.90;;;;;;5037516;28;20202;-74
2021/12/23 06:04:34;;;;;;;23.63;15.70;;;1.90;99.90;;;;;;5047227;28;20211;-73
2021/12/23 06:07:02;;;;;;;23.40;16.23;;;1.90;99.90;;;;;;5036969;28;20203;-74
2021/12/23 06:09:29;;;;;;;23.07;15.87;;;2.00;99.90;;;;;;5058109;28;20194;-74
2021/12/23 06:11:57;;;;;;;22.40;16.73;;;2.00;99.90;;;;;;5059061;28;20192;-74
2021/12/23 06:14:24;;;;;;;24.53;17.17;;;2.00;99.90;;;;;;5038252;28;20210;-74
2021/12/23 06:16:52;;;;;;;23.33;16.77;;;2.00;99.90;;;;;;5034620;28;20214;-75
2021/12/23 06:19:20;;;;;;;24.90;17.27;;;2.10;99.90;;;;;;5049108;28;20199;-73
2021/12/23 06:21:48;;;;;;;26.60;16.47;;;2.10;99.90;;;;;;5054675;28;20196;-74
2021/12/23 06:24:34;;;;;;;22.20;15.97;;;2.10;99.90;;;;;;5052992;28;20187;-74
2021/12/23 06:27:01;;;;;;;23.60;15.70;;;2.10;99.90;;;;;;5050845;28;20190;-73
2021/12/23 06:29:28;;;;;;;23.53;16.57;;;2.10;99.90;;;;;;5034010;28;20229;-74
2021/12/23 06:32:01;;;;;;;22.57;15.70;;;2.00;99.90;;;;;;5036200;28;20221;-73
2021/12/23 06:34:30;;;;;;;23.03;16.37;;;2.40;99.90;;;;;;5055149;28;20213;-74
2021/12/23 06:36:58;;;;;;;23.20;16.53;;;2.80;99.90;;;;;;5036317;28;20218;-73
2021/12/23 06:39:25;;;;;;;21.80;15.53;;;2.40;99.90;;;;;;5037677;28;20198;-72
2021/12/23 06:41:57;;;;;;;22.57;15.90;;;2.30;99.90;;;;;;5032586;28;20202;-72
2021/12/23 06:44:26;;;;;;;25.40;16.60;;;2.30;99.90;;;;;;5049431;28;20201;-72
2021/12/23 06:46:56;;;;;;;21.27;15.87;;;2.30;99.90;;;;;;5050099;28;20206;-72
2021/12/23 06:49:23;;;;;;;25.63;16.83;;;2.30;99.90;;;;;;5051080;28;20190;-72
2021/12/23 06:52:17;;;;;;;24.57;17.10;;;2.20;99.90;;;;;;5050037;28;20253;-72
2021/12/23 06:54:49;;;;;;;25.67;17.50;;;2.10;99.90;;;;;;5049964;28;20205;-73
2021/12/23 06:57:16;;;;;;;26.57;16.77;;;2.10;99.90;;;;;;5032654;28;20690;-72
2021/12/23 06:59:43;;;;;;;25.13;16.90;;;2.10;99.90;;;;;;5033496;28;20205;-72
2021/12/23 07:02:11;;;;;;;23.87;17.97;;;2.10;99.90;;;;;;5032917;28;20198;-72
2021/12/23 07:04:40;;;;;;;24.67;16.63;;;2.00;99.90;;;;;;5026386;28;20206;-72
2021/12/23 07:07:10;;;;;;;25.80;17.53;;;2.10;99.90;;;;;;5031570;28;20679;-72
2021/12/23 07:09:45;;;;;;;27.97;17.80;;;2.00;99.90;;;;;;5037264;28;20190;-72
2021/12/23 07:12:14;;;;;;;23.27;16.57;;;2.20;99.90;;;;;;5025984;28;20309;-72
2021/12/23 07:14:46;;;;;;;24.63;16.97;;;2.20;99.90;;;;;;5029176;28;20198;-71
2021/12/23 07:17:14;;;;;;;25.47;17.70;;;2.10;99.90;;;;;;5044010;28;20208;-72
2021/12/23 07:19:41;;;;;;;23.70;16.87;;;2.10;99.90;;;;;;5043759;28;20199;-72
2021/12/23 07:22:08;;;;;;;24.37;16.63;;;2.20;99.90;;;;;;5015661;28;20192;-72
2021/12/23 07:24:36;;;;;;;24.40;17.83;;;2.10;99.90;;;;;;5026031;28;20214;-72
2021/12/23 07:27:05;;;;;;;25.37;17.27;;;2.20;99.90;;;;;;5014916;28;20195;-72
2021/12/23 07:29:32;;;;;;;24.90;17.30;;;2.30;99.90;;;;;;5044211;28;20659;-72
2021/12/23 07:32:07;;;;;;;25.20;17.73;;;2.30;99.90;;;;;;5029591;28;20202;-72
2021/12/23 07:34:34;;;;;;;24.60;16.63;;;2.40;99.90;;;;;;5030401;28;20211;-74
2021/12/23 07:37:02;;;;;;;26.13;18.23;;;2.30;99.90;;;;;;5034178;28;20221;-74
2021/12/23 07:39:29;;;;;;;22.50;17.60;;;2.30;99.90;;;;;;5027933;28;20209;-74
2021/12/23 07:42:14;;;;;;;24.80;16.90;;;2.30;99.90;;;;;;5027376;28;20206;-74
2021/12/23 07:44:41;;;;;;;25.63;16.43;;;2.40;99.90;;;;;;5027525;28;20681;-73
2021/12/23 07:47:09;;;;;;;24.70;16.90;;;2.40;99.90;;;;;;5044165;28;20190;-75
2021/12/23 07:49:36;;;;;;;23.07;17.23;;;2.60;99.90;;;;;;5029714;28;20198;-74
2021/12/23 07:52:06;;;;;;;24.23;16.87;;;2.70;99.90;;;;;;5035243;28;20558;-74
2021/12/23 07:54:56;;;;;;;26.13;18.10;;;2.60;99.90;;;;;;5033282;28;20199;-74
2021/12/23 07:57:25;;;;;;;25.07;17.77;;;2.40;99.90;;;;;;5031063;28;20229;-73
2021/12/23 07:59:52;;;;;;;25.93;17.10;;;2.40;99.90;;;;;;5028429;28;20198;-72
2021/12/23 08:02:20;;;;;;;22.30;15.67;;;2.70;99.90;;;;;;5046085;28;20206;-73
2021/12/23 08:04:47;;;;;;;22.13;16.50;;;3.00;99.90;;;;;;5030560;28;20204;-75
2021/12/23 08:07:14;;;;;;;25.10;16.90;;;3.10;99.90;;;;;;5029355;28;20195;-75
2021/12/23 08:09:42;;;;;;;24.87;17.67;;;3.00;99.90;;;;;;5042239;28;20208;-75
2021/12/23 08:12:11;;;;;;;24.67;17.23;;;2.90;99.90;;;;;;5029249;28;20190;-75
2021/12/23 08:14:40;;;;;;;23.40;16.87;;;2.70;99.90;;;;;;5030891;28;20195;-74
2021/12/23 08:17:07;;;;;;;23.00;16.53;;;2.50;99.90;;;;;;5030695;28;20220;-74
2021/12/23 08:19:34;;;;;;;25.33;17.63;;;2.40;99.90;;;;;;5064591;28;20238;-73
2021/12/23 08:22:17;;;;;;;26.30;17.90;;;2.40;99.90;;;;;;5049186;28;20189;-75
2021/12/23 08:24:44;;;;;;;24.90;16.73;;;2.60;99.90;;;;;;5049501;28;20198;-74
2021/12/23 08:27:12;;;;;;;24.13;17.33;;;2.60;99.90;;;;;;5035030;28;20192;-74
2021/12/23 08:29:40;;;;;;;25.70;17.03;;;2.60;99.90;;;;;;5053469;28;20188;-74
2021/12/23 08:32:22;;;;;;;25.33;17.80;;;2.50;99.90;;;;;;5050863;28;20188;-73
2021/12/23 08:34:50;;;;;;;20.67;14.30;;;2.60;99.90;;;;;;5035034;28;20194;-74
2021/12/23 08:37:35;;;;;;;23.07;13.37;;;4.00;99.90;;;;;;5045141;28;20336;-74
2021/12/23 08:40:03;;;;;;;25.57;17.63;;;5.30;99.90;;;;;;5032692;28;20205;-75
2021/12/23 08:42:31;;;;;;;24.13;17.53;;;3.80;99.90;;;;;;5036915;28;20206;-75
2021/12/23 08:45:00;;;;;;;24.83;17.47;;;3.10;99.90;;;;;;5054552;28;20206;-75
2021/12/23 08:47:27;;;;;;;26.40;17.43;;;2.90;99.90;;;;;;5054331;28;20172;-75
2021/12/23 08:49:55;;;;;;;26.60;18.07;;;2.80;99.90;;;;;;5055070;28;20201;-75
2021/12/23 08:52:22;;;;;;;24.73;18.33;;;2.60;99.90;;;;;;5036591;28;20200;-75
2021/12/23 08:54:49;;;;;;;24.33;17.93;;;2.70;99.90;;;;;;5067303;28;20185;-75
2021/12/23 08:57:17;;;;;;;29.77;17.50;;;2.80;99.90;;;;;;5052589;28;20203;-76
2021/12/23 08:59:46;;;;;;;24.57;16.83;;;2.90;99.90;;;;;;5036580;28;20193;-75
2021/12/23 09:02:16;;;;;;;28.87;17.87;;;2.70;99.90;;;;;;5058643;28;20197;-75
2021/12/23 09:04:43;;;;;;;25.83;17.17;;;2.70;99.90;;;;;;5036469;28;20201;-75
2021/12/23 09:07:12;;;;;;;29.17;18.33;;;2.90;99.90;;;;;;5036662;28;20699;-75
2021/12/23 09:09:40;;;;;;;30.47;19.60;;;2.80;99.90;;;;;;5054561;28;20201;-75
2021/12/23 09:12:09;;;;;;;26.97;18.80;;;2.80;99.90;;;;;;5036824;28;20201;-75
2021/12/23 09:14:36;;;;;;;30.10;18.60;;;2.80;99.90;;;;;;5053864;28;20196;-75
2021/12/23 09:17:16;;;;;;;25.20;17.40;;;2.90;99.90;;;;;;5038978;28;20206;-75
2021/12/23 09:19:44;;;;;;;27.27;17.90;;;3.00;99.90;;;;;;5030277;28;20201;-74
2021/12/23 09:22:12;;;;;;;25.97;17.63;;;3.00;99.90;;;;;;5054176;28;20193;-75
2021/12/23 09:24:44;;;;;;;24.77;17.10;;;3.00;99.90;;;;;;5036226;28;20199;-75
2021/12/23 09:27:23;;;;;;;25.57;17.17;;;3.20;99.90;;;;;;5043713;28;20194;-75
2021/12/23 09:32:51;;;;;;;26.40;18.63;;;3.20;99.90;;;;;;5035890;28;20667;-75
2021/12/23 09:35:21;;;;;;;27.43;18.43;;;3.30;99.90;;;;;;5054057;28;20213;-75
2021/12/23 09:38:40;;;;;;;24.80;17.57;;;3.20;99.90;;;;;;5035729;28;20228;-75
2021/12/23 09:41:13;;;;;;;23.33;16.97;;;3.20;99.90;;;;;;5069174;28;20198;-75
2021/12/23 09:43:41;;;;;;;25.70;17.40;;;3.30;99.90;;;;;;5036067;28;20207;-75
2021/12/23 09:46:11;;;;;;;22.53;17.03;;;3.30;99.90;;;;;;5035040;28;20226;-75
2021/12/23 09:48:43;;;;;;;25.87;17.17;;;3.30;99.90;;;;;;5053112;28;20224;-75
2021/12/23 09:51:11;;;;;;;23.70;16.97;;;3.30;99.90;;;;;;5037567;28;20217;-75
2021/12/23 09:53:41;;;;;;;23.33;17.23;;;3.30;99.90;;;;;;5064308;28;20186;-75
2021/12/23 09:56:09;;;;;;;22.57;16.00;;;3.30;99.90;;;;;;5035233;28;20226;-75
2021/12/23 09:58:37;;;;;;;24.50;15.90;;;3.30;99.90;;;;;;5030717;28;20692;-75
2021/12/23 10:01:05;;;;;;;24.40;15.93;;;3.30;99.90;;;;;;5050279;28;20196;-75
2021/12/23 10:03:34;;;;;;;22.13;15.90;;;3.40;99.90;;;;;;5033902;28;20203;-75
2021/12/23 10:06:03;;;;;;;22.90;15.67;;;3.40;99.80;;;;;;5035584;28;20702;-75
2021/12/23 10:08:30;;;;;;;22.53;15.43;;;3.50;99.60;;;;;;5053287;28;20192;-75
2021/12/23 10:11:04;;;;;;;20.30;14.57;;;3.50;99.90;;;;;;5028290;28;20200;-75
2021/12/23 10:30:35;;;;;;;21.30;15.03;;;3.90;98.80;;;;;;5035059;28;20206;-75
2021/12/23 10:38:30;;;;;;;17.90;12.77;;;4.00;98.50;;;;;;5034999;28;20203;-75
2021/12/23 10:40:59;;;;;;;19.23;13.10;;;4.10;98.40;;;;;;5034794;28;20198;-75
2021/12/23 10:43:32;;;;;;;18.23;14.07;;;4.10;98.20;;;;;;5053422;28;20201;-75
2021/12/23 10:46:03;;;;;;;17.90;12.80;;;4.30;98.00;;;;;;5067191;28;20225;-75
2021/12/23 10:48:33;;;;;;;19.10;13.67;;;4.40;97.90;;;;;;5052623;28;20190;-75
2021/12/23 10:51:16;;;;;;;20.60;12.87;;;4.40;97.90;;;;;;5031809;28;20564;-75
2021/12/23 10:59:22;;;;;;;16.47;12.23;;;4.50;97.60;;;;;;5045565;28;20217;-74
2021/12/23 11:02:12;;;;;;;20.20;12.60;;;4.60;97.40;;;;;;5029409;28;20213;-73
2021/12/23 11:05:08;;;;;;;18.30;12.07;;;4.90;98.20;;;;;;5028227;28;20210;-73
2021/12/23 11:07:49;;;;;;;17.97;12.43;;;6.00;97.60;;;;;;5028729;28;20199;-74
2021/12/23 11:10:36;;;;;;;18.33;11.63;;;5.30;96.50;;;;;;5031098;28;20195;-73
2021/12/23 11:27:37;;;;;;;19.47;12.93;;;5.00;97.20;;;;;;5031114;28;20199;-74
2021/12/23 11:38:39;;;;;;;17.50;12.23;;;5.20;97.20;;;;;;5010880;28;20207;-74
2021/12/23 11:41:32;;;;;;;16.23;11.43;;;5.30;97.10;;;;;;5047038;28;20204;-73
2021/12/23 11:44:04;;;;;;;18.17;12.40;;;5.30;97.30;;;;;;5043139;28;20199;-73
2021/12/23 11:46:37;;;;;;;16.00;11.93;;;5.40;97.40;;;;;;5034489;28;20630;-73
2021/12/23 11:49:07;;;;;;;20.80;11.80;;;5.40;97.30;;;;;;5044157;28;20656;-74
2021/12/23 11:51:45;;;;;;;18.50;11.80;;;5.50;97.30;;;;;;5064418;28;20195;-73
2021/12/23 11:54:15;;;;;;;19.70;12.10;;;5.50;97.70;;;;;;5029526;28;20213;-74
2021/12/23 11:56:58;;;;;;;17.07;12.10;;;5.60;97.50;;;;;;5033423;28;20326;-73
2021/12/23 11:59:26;;;;;;;14.40;11.17;;;5.60;97.50;;;;;;5048084;28;20202;-73
2021/12/23 12:02:15;;;;;;;17.97;12.23;;;5.50;97.70;;;;;;5036899;28;20227;-73
2021/12/23 12:04:43;;;;;;;17.77;11.53;;;5.60;97.80;;;;;;5034515;28;20209;-74
2021/12/23 12:07:16;;;;;;;17.60;12.40;;;5.50;97.80;;;;;;5036414;28;20218;-73
2021/12/23 12:10:01;;;;;;;16.60;12.10;;;5.60;98.00;;;;;;5035045;28;20201;-74
2021/12/23 12:12:30;;;;;;;17.33;12.40;;;5.80;97.70;;;;;;5032995;28;20646;-73
2021/12/23 12:14:59;;;;;;;16.13;11.57;;;5.90;97.60;;;;;;5050628;28;20655;-73
2021/12/23 12:17:38;;;;;;;15.83;11.33;;;5.80;97.90;;;;;;5055897;28;20202;-74
2021/12/23 12:20:35;;;;;;;17.60;12.37;;;5.90;97.90;;;;;;5036657;28;20566;-73
2021/12/23 12:23:08;;;;;;;17.70;11.43;;;5.80;98.20;;;;;;5033048;28;20212;-73
2021/12/23 12:26:08;;;;;;;16.80;11.70;;;5.90;98.40;;;;;;5030204;28;20236;-74
2021/12/23 12:28:39;;;;;;;17.40;12.47;;;5.90;98.60;;;;;;5031605;28;20556;-72
2021/12/23 12:31:11;;;;;;;16.97;11.70;;;5.90;98.70;;;;;;5053640;28;20190;-73
2021/12/23 12:33:54;;;;;;;16.00;11.87;;;6.00;98.80;;;;;;5033413;28;20196;-71
2021/12/23 12:36:23;;;;;;;16.83;11.73;;;6.00;98.80;;;;;;5035330;28;20229;-72
2021/12/23 12:38:55;;;;;;;18.57;11.77;;;6.20;98.90;;;;;;5040071;28;20206;-72
2021/12/23 12:41:29;;;;;;;17.13;11.53;;;6.30;98.70;;;;;;5040581;28;20201;-72
2021/12/23 12:44:04;;;;;;;21.67;12.70;;;6.20;98.90;;;;;;5041955;28;20200;-71
2021/12/23 12:47:10;;;;;;;15.80;11.60;;;6.10;99.10;;;;;;5036861;28;20228;-71
2021/12/23 12:49:42;;;;;;;17.80;12.30;;;6.10;99.20;;;;;;5055127;28;20189;-71
2021/12/23 12:52:24;;;;;;;18.40;12.10;;;6.20;99.40;;;;;;5037303;28;20205;-71
2021/12/23 12:54:57;;;;;;;17.20;12.00;;;6.30;99.40;;;;;;5040255;28;20208;-72
2021/12/23 12:57:31;;;;;;;19.33;11.37;;;6.30;99.50;;;;;;5038179;28;20201;-74
2021/12/23 13:00:17;;;;;;;18.10;12.00;;;6.30;99.80;;;;;;5032973;28;20220;-73
2021/12/23 13:02:55;;;;;;;16.23;11.53;;;6.20;99.90;;;;;;5031656;28;20226;-73
2021/12/23 13:05:29;;;;;;;16.73;12.33;;;6.20;99.90;;;;;;5032014;28;20227;-73
2021/12/23 13:08:23;;;;;;;18.50;12.17;;;6.10;99.90;;;;;;5055096;28;20205;-72
2021/12/23 13:11:20;;;;;;;20.53;12.40;;;6.10;99.90;;;;;;5015991;28;20197;-72
2021/12/23 13:14:00;;;;;;;18.90;12.33;;;6.10;99.90;;;;;;5058411;28;20667;-74
2021/12/23 13:16:50;;;;;;;18.33;11.70;;;6.10;99.90;;;;;;5053515;28;20594;-72
2021/12/23 13:19:24;;;;;;;20.10;12.73;;;5.90;99.90;;;;;;5038160;28;20223;-72
2021/12/23 13:21:54;;;;;;;18.07;12.13;;;5.90;99.90;;;;;;5027455;28;20197;-72
2021/12/23 13:24:24;;;;;;;17.37;11.67;;;6.00;99.90;;;;;;5031806;28;20227;-72
2021/12/23 13:26:53;;;;;;;19.40;13.03;;;5.90;99.90;;;;;;5028113;28;20235;-72
2021/12/23 13:29:26;;;;;;;17.77;11.97;;;5.90;99.90;;;;;;5052932;28;20203;-71
2021/12/23 13:31:54;;;;;;;17.87;12.40;;;6.00;99.90;;;;;;5047572;28;20191;-72
2021/12/23 13:34:25;;;;;;;17.70;11.77;;;6.00;99.90;;;;;;5053245;28;20577;-72
2021/12/23 13:36:56;;;;;;;17.77;13.20;;;6.10;99.90;;;;;;5034701;28;20218;-72
2021/12/23 13:39:49;;;;;;;18.57;12.60;;;6.20;99.90;;;;;;5033544;28;20204;-72
2021/12/23 13:42:16;;;;;;;16.53;12.73;;;6.20;99.90;;;;;;5030422;28;20200;-74
2021/12/23 13:44:47;;;;;;;23.27;15.30;;;6.30;99.90;;;;;;5035072;28;20205;-73
2021/12/23 13:47:17;;;;;;;20.93;14.27;;;6.50;99.90;;;;;;5035084;28;20209;-72
2021/12/23 13:49:47;;;;;;;19.43;13.53;;;6.50;99.90;;;;;;5034613;28;20202;-72
2021/12/23 13:55:43;;;;;;;16.80;11.67;;;6.80;99.90;;;;;;5045199;28;20213;-72
2021/12/23 13:58:10;;;;;;;17.63;12.30;;;6.90;99.90;;;;;;5034593;28;20205;-72